createdAt,value
2023-11-10T00:00:14.980Z,2.70
2023-11-10T00:02:46.439Z,3.15
2023-11-10T00:05:13.873Z,3.33
2023-11-10T00:07:41.434Z,3.20
2023-11-10T00:10:09.363Z,3.22
2023-11-10T00:12:36.869Z,3.05
2023-11-10T00:15:04.857Z,2.80
2023-11-10T00:17:31.648Z,3.15
2023-11-10T00:19:59.606Z,2.80
2023-11-10T00:22:26.561Z,2.80
2023-11-10T00:24:54.357Z,2.80
2023-11-10T00:27:21.283Z,2.90
2023-11-10T00:29:49.052Z,3.20
2023-11-10T00:32:16.082Z,3.00
2023-11-10T00:34:42.996Z,3.05
2023-11-10T00:37:10.399Z,3.00
2023-11-10T00:39:37.650Z,2.97
2023-11-10T00:42:04.698Z,3.20
2023-11-10T00:44:31.488Z,3.45
2023-11-10T00:46:58.354Z,2.92
2023-11-10T00:49:25.180Z,3.03
2023-11-10T00:51:52.008Z,3.13
2023-11-10T00:54:19.034Z,2.97
2023-11-10T00:56:46.210Z,2.88
2023-11-10T00:59:13.259Z,2.72
2023-11-10T01:01:40.511Z,3.30
2023-11-10T01:04:08.119Z,3.08
2023-11-10T01:06:35.316Z,3.13
2023-11-10T01:09:02.421Z,3.20
2023-11-10T01:11:29.528Z,3.60
2023-11-10T01:13:56.350Z,3.30
2023-11-10T01:16:25.001Z,3.78
2023-11-10T01:18:51.885Z,3.60
2023-11-10T01:21:20.068Z,3.47
2023-11-10T01:23:47.140Z,3.10
2023-11-10T01:26:15.036Z,3.20
2023-11-10T01:28:41.819Z,3.50
2023-11-10T01:31:10.276Z,3.45
2023-11-10T01:33:37.347Z,3.10
2023-11-10T01:36:04.565Z,3.10
2023-11-10T01:38:31.416Z,3.08
2023-11-10T01:40:58.232Z,3.53
2023-11-10T01:43:25.013Z,3.40
2023-11-10T01:45:52.096Z,3.17
2023-11-10T01:48:21.039Z,3.33
2023-11-10T01:50:47.941Z,3.45
2023-11-10T01:53:15.401Z,3.30
2023-11-10T01:55:44.832Z,3.33
2023-11-10T01:58:12.963Z,3.15
2023-11-10T02:00:40.575Z,3.40
2023-11-10T02:03:09.015Z,2.88
2023-11-10T02:05:36.309Z,3.17
2023-11-10T02:08:04.668Z,3.53
2023-11-10T02:10:32.299Z,3.47
2023-11-10T02:13:00.911Z,3.50
2023-11-10T02:15:29.334Z,3.72
2023-11-10T02:17:56.809Z,3.75
2023-11-10T02:20:24.420Z,3.60
2023-11-10T02:22:52.102Z,2.88
2023-11-10T02:25:23.083Z,3.10
2023-11-10T02:27:52.373Z,3.20
2023-11-10T02:30:20.064Z,2.75
2023-11-10T02:32:47.718Z,2.95
2023-11-10T02:35:16.372Z,3.53
2023-11-10T02:37:43.571Z,3.40
2023-11-10T02:40:10.858Z,3.38
2023-11-10T02:42:38.282Z,3.45
2023-11-10T02:45:06.957Z,3.20
2023-11-10T02:47:34.422Z,3.03
2023-11-10T02:50:01.360Z,3.38
2023-11-10T02:52:28.279Z,3.40
2023-11-10T02:54:55.151Z,3.72
2023-11-10T02:57:23.239Z,3.30
2023-11-10T02:59:50.657Z,3.33
2023-11-10T03:02:17.645Z,3.40
2023-11-10T03:04:44.834Z,3.00
2023-11-10T03:07:12.033Z,3.40
2023-11-10T03:09:41.713Z,3.63
2023-11-10T03:12:10.260Z,3.20
2023-11-10T03:14:37.791Z,3.47
2023-11-10T03:17:06.819Z,3.40
2023-11-10T03:19:33.717Z,3.10
2023-11-10T03:22:00.622Z,3.30
2023-11-10T03:24:27.474Z,3.17
2023-11-10T03:26:54.268Z,3.40
2023-11-10T03:29:21.231Z,3.50
2023-11-10T03:31:48.086Z,3.38
2023-11-10T03:34:16.323Z,3.53
2023-11-10T03:36:43.190Z,3.22
2023-11-10T03:39:10.073Z,3.10
2023-11-10T03:41:38.941Z,2.80
2023-11-10T03:44:05.939Z,3.25
2023-11-10T03:46:32.723Z,2.90
2023-11-10T03:49:00.322Z,2.95
2023-11-10T03:51:27.343Z,3.67
2023-11-10T03:53:54.208Z,3.22
2023-11-10T03:56:20.995Z,3.53
2023-11-10T03:58:47.809Z,3.00
2023-11-10T04:01:15.289Z,3.40
2023-11-10T04:03:43.711Z,3.20
2023-11-10T04:06:10.764Z,3.28
2023-11-10T04:08:37.631Z,3.47
2023-11-10T04:11:04.750Z,2.92
2023-11-10T04:13:31.620Z,3.17
2023-11-10T04:15:58.777Z,3.22
2023-11-10T04:18:29.120Z,2.80
2023-11-10T04:20:56.820Z,2.90
2023-11-10T04:23:23.846Z,2.90
2023-11-10T04:25:51.053Z,3.10
2023-11-10T04:28:17.932Z,2.55
2023-11-10T04:30:45.714Z,3.10
2023-11-10T04:33:12.968Z,2.80
2023-11-10T04:35:39.873Z,2.78
2023-11-10T04:38:09.499Z,2.88
2023-11-10T04:40:36.815Z,2.35
2023-11-10T04:43:03.958Z,2.90
2023-11-10T04:45:31.238Z,2.80
2023-11-10T04:47:58.379Z,3.05
2023-11-10T04:50:25.210Z,2.92
2023-11-10T04:52:55.250Z,3.42
2023-11-10T04:57:49.192Z,3.20
2023-11-10T05:00:17.771Z,2.88
2023-11-10T05:02:45.388Z,2.78
2023-11-10T05:05:14.536Z,2.92
2023-11-10T05:07:42.511Z,2.97
2023-11-10T05:10:09.950Z,2.70
2023-11-10T05:12:37.664Z,2.78
2023-11-10T05:15:08.919Z,2.90
2023-11-10T05:17:44.612Z,3.10
2023-11-10T05:20:12.667Z,3.05
2023-11-10T05:22:41.331Z,3.05
2023-11-10T05:25:09.221Z,2.60
2023-11-10T05:27:36.200Z,2.95
2023-11-10T05:30:03.091Z,2.72
2023-11-10T05:32:30.531Z,3.10
2023-11-10T05:34:59.144Z,2.70
2023-11-10T05:37:26.798Z,3.03
2023-11-10T05:39:54.288Z,2.95
2023-11-10T05:42:24.905Z,2.63
2023-11-10T05:44:51.914Z,2.90
2023-11-10T05:47:19.185Z,3.22
2023-11-10T05:49:45.961Z,3.30
2023-11-10T05:52:13.482Z,3.30
2023-11-10T05:54:43.320Z,3.28
2023-11-10T05:57:10.191Z,3.20
2023-11-10T05:59:37.935Z,3.15
2023-11-10T06:02:04.957Z,3.25
2023-11-10T06:04:35.485Z,3.38
2023-11-10T06:07:04.140Z,2.95
2023-11-10T06:09:34.297Z,3.20
2023-11-10T06:12:01.539Z,3.13
2023-11-10T06:14:30.328Z,2.90
2023-11-10T06:16:57.553Z,2.75
2023-11-10T06:19:24.668Z,3.28
2023-11-10T06:21:51.973Z,2.85
2023-11-10T06:24:21.287Z,3.05
2023-11-10T06:26:48.559Z,3.13
2023-11-10T06:29:15.420Z,3.20
2023-11-10T06:31:42.634Z,3.08
2023-11-10T06:34:09.549Z,3.08
2023-11-10T06:36:36.513Z,2.80
2023-11-10T06:39:04.326Z,3.10
2023-11-10T06:41:31.291Z,3.22
2023-11-10T06:43:58.062Z,3.10
2023-11-10T06:46:25.121Z,3.08
2023-11-10T06:48:53.307Z,3.45
2023-11-10T06:51:21.616Z,2.92
2023-11-10T06:53:48.571Z,3.10
2023-11-10T06:56:16.040Z,3.30
2023-11-10T06:58:42.838Z,2.90
2023-11-10T07:01:10.623Z,3.33
2023-11-10T07:03:38.163Z,3.30
2023-11-10T07:06:06.172Z,3.00
2023-11-10T07:08:34.369Z,3.35
2023-11-10T07:11:03.392Z,3.47
2023-11-10T07:13:31.235Z,3.30
2023-11-10T07:15:59.894Z,3.40
2023-11-10T07:18:27.742Z,3.60
2023-11-10T07:20:55.736Z,3.33
2023-11-10T07:23:23.006Z,3.30
2023-11-10T07:25:52.110Z,3.10
2023-11-10T07:28:19.530Z,3.08
2023-11-10T07:30:46.415Z,3.40
2023-11-10T07:33:13.348Z,2.97
2023-11-10T07:35:40.445Z,2.88
2023-11-10T07:38:07.899Z,3.03
2023-11-10T07:40:34.969Z,2.97
2023-11-10T07:43:01.941Z,3.40
2023-11-10T07:45:30.447Z,2.30
2023-11-10T07:47:57.729Z,3.03
2023-11-10T07:50:25.562Z,2.55
2023-11-10T07:52:52.854Z,2.42
2023-11-10T07:55:19.727Z,2.55
2023-11-10T07:57:49.198Z,2.17
2023-11-10T08:00:20.693Z,2.08
2023-11-10T08:02:52.958Z,1.88
2023-11-10T08:05:22.211Z,1.90
2023-11-10T08:07:50.249Z,1.90
2023-11-10T08:10:18.053Z,1.83
2023-11-10T08:12:45.409Z,1.73
2023-11-10T08:15:12.536Z,1.77
2023-11-10T08:17:39.641Z,1.73
2023-11-10T08:20:07.609Z,1.77
2023-11-10T08:22:34.526Z,1.60
2023-11-10T08:25:04.378Z,1.42
2023-11-10T08:27:34.086Z,1.58
2023-11-10T08:30:01.733Z,1.50
2023-11-10T08:32:28.902Z,1.77
2023-11-10T08:34:57.034Z,1.95
2023-11-10T08:37:23.976Z,1.40
2023-11-10T08:39:51.147Z,1.48
2023-11-10T08:42:19.333Z,1.23
2023-11-10T08:44:47.551Z,1.45
2023-11-10T08:47:15.466Z,1.48
2023-11-10T08:49:46.779Z,1.40
2023-11-10T08:52:15.607Z,1.05
2023-11-10T08:54:42.701Z,1.10
2023-11-10T08:57:09.595Z,1.20
2023-11-10T08:59:36.420Z,1.27
2023-11-10T09:02:03.890Z,1.25
2023-11-10T09:04:30.912Z,0.90
2023-11-10T09:06:57.901Z,1.08
2023-11-10T09:09:24.919Z,1.10
2023-11-10T09:11:52.060Z,1.02
2023-11-10T09:14:18.921Z,0.90
2023-11-10T09:16:46.346Z,0.90
2023-11-10T09:19:13.357Z,0.90
2023-11-10T09:21:40.464Z,0.82
2023-11-10T09:24:08.336Z,0.70
2023-11-10T09:26:36.089Z,0.57
2023-11-10T09:29:03.532Z,0.63
2023-11-10T09:31:30.381Z,0.55
2023-11-10T09:33:58.875Z,0.65
2023-11-10T09:36:26.318Z,0.70
2023-11-10T09:38:53.881Z,0.47
2023-11-10T09:41:27.367Z,0.75
2023-11-10T09:43:55.292Z,0.60
2023-11-10T09:46:23.636Z,0.60
2023-11-10T09:48:52.556Z,0.45
2023-11-10T09:51:21.034Z,0.80
2023-11-10T09:53:50.101Z,0.65
2023-11-10T09:56:18.255Z,0.60
2023-11-10T09:58:46.652Z,0.60
2023-11-10T10:01:13.494Z,0.70
2023-11-10T10:03:40.437Z,0.50
2023-11-10T10:06:09.311Z,0.55
2023-11-10T10:08:36.128Z,0.70
2023-11-10T10:11:03.722Z,0.65
2023-11-10T10:13:32.052Z,0.60
2023-11-10T10:16:09.328Z,0.70
2023-11-10T10:18:36.250Z,0.60
2023-11-10T10:21:03.130Z,0.40
2023-11-10T10:23:30.071Z,0.40
2023-11-10T10:25:58.918Z,0.40
2023-11-10T10:28:25.713Z,0.57
2023-11-10T10:30:53.232Z,0.35
2023-11-10T10:33:20.211Z,0.30
2023-11-10T10:35:47.555Z,0.60
2023-11-10T10:38:18.472Z,0.20
2023-11-10T10:40:46.151Z,0.40
2023-11-10T10:43:14.289Z,0.40
2023-11-10T10:45:43.900Z,0.43
2023-11-10T10:48:12.484Z,0.50
2023-11-10T10:50:41.477Z,0.60
2023-11-10T10:53:10.202Z,0.30
2023-11-10T10:55:39.950Z,0.47
2023-11-10T10:58:08.910Z,0.30
2023-11-10T11:00:39.373Z,0.20
2023-11-10T11:06:14.135Z,0.22
2023-11-10T11:09:00.724Z,0.38
2023-11-10T11:11:51.891Z,0.22
2023-11-10T11:14:53.138Z,0.57
2023-11-10T11:17:42.371Z,0.30
2023-11-10T11:20:13.793Z,0.20
2023-11-10T11:22:41.010Z,0.20
2023-11-10T11:25:09.791Z,0.40
2023-11-10T11:27:38.943Z,0.30
2023-11-10T11:30:12.193Z,0.17
2023-11-10T11:32:42.849Z,0.22
2023-11-10T11:35:19.018Z,0.30
2023-11-10T11:37:46.645Z,0.50
2023-11-10T11:40:13.976Z,0.32
2023-11-10T11:42:42.700Z,0.30
2023-11-10T11:45:13.944Z,0.88
2023-11-10T11:47:41.582Z,0.57
2023-11-10T11:50:10.985Z,0.30
2023-11-10T11:52:38.474Z,0.32
2023-11-10T11:55:05.986Z,0.47
2023-11-10T11:57:33.739Z,0.20
2023-11-10T12:00:00.980Z,0.38
2023-11-10T12:02:27.775Z,0.40
2023-11-10T12:04:54.636Z,0.30
2023-11-10T12:07:26.134Z,0.38
2023-11-10T12:09:54.548Z,0.38
2023-11-10T12:12:21.777Z,0.50
2023-11-10T12:14:49.450Z,0.45
2023-11-10T12:17:16.382Z,0.40
2023-11-10T12:19:45.312Z,0.57
2023-11-10T12:22:12.144Z,0.20
2023-11-10T12:24:39.086Z,0.43
2023-11-10T12:27:06.091Z,0.40
2023-11-10T12:29:33.882Z,0.70
2023-11-10T12:32:01.070Z,0.70
2023-11-10T12:34:28.734Z,0.80
2023-11-10T12:36:59.429Z,0.60
2023-11-10T12:39:26.672Z,0.80
2023-11-10T12:41:56.948Z,0.85
2023-11-10T12:46:58.558Z,0.68
2023-11-10T12:49:26.535Z,0.90
2023-11-10T12:51:54.428Z,0.50
2023-11-10T12:54:31.479Z,0.60
2023-11-10T12:56:58.475Z,0.70
2023-11-10T12:59:31.228Z,0.40
2023-11-10T13:02:00.293Z,0.47
2023-11-10T13:04:28.119Z,0.65
2023-11-10T13:06:57.002Z,0.80
2023-11-10T13:09:25.006Z,0.47
2023-11-10T13:11:52.459Z,0.60
2023-11-10T13:14:19.227Z,0.60
2023-11-10T13:16:46.208Z,0.80
2023-11-10T13:19:14.841Z,0.60
2023-11-10T13:21:44.770Z,0.50
2023-11-10T13:24:12.325Z,0.70
2023-11-10T13:26:39.363Z,0.60
2023-11-10T13:29:08.621Z,0.60
2023-11-10T13:31:35.961Z,0.63
2023-11-10T13:34:05.521Z,0.50
2023-11-10T13:36:32.804Z,0.53
2023-11-10T13:38:59.636Z,0.77
2023-11-10T13:41:33.275Z,0.50
2023-11-10T13:44:08.572Z,0.63
2023-11-10T13:46:35.546Z,0.57
2023-11-10T13:49:02.669Z,0.93
2023-11-10T13:51:29.653Z,0.50
2023-11-10T13:53:56.483Z,0.40
2023-11-10T13:56:23.609Z,0.82
2023-11-10T13:58:52.926Z,1.10
2023-11-10T14:01:20.832Z,0.50
2023-11-10T14:03:47.901Z,1.10
2023-11-10T14:06:16.814Z,0.63
2023-11-10T14:08:43.821Z,2.15
2023-11-10T14:11:11.554Z,2.05
2023-11-10T14:13:39.476Z,1.75
2023-11-10T14:16:10.813Z,1.10
2023-11-10T14:18:39.899Z,3.55
2023-11-10T14:21:06.939Z,4.95
2023-11-10T14:23:33.818Z,6.88
2023-11-10T14:26:01.516Z,21.70
2023-11-10T14:28:28.629Z,1.30
2023-11-10T14:30:57.965Z,3.17
2023-11-10T14:33:26.721Z,1.17
2023-11-10T14:35:53.606Z,0.70
2023-11-10T14:38:21.623Z,1.75
2023-11-10T14:40:49.350Z,1.48
2023-11-10T14:43:16.464Z,1.70
2023-11-10T14:45:48.987Z,3.20
2023-11-10T14:48:19.418Z,0.95
2023-11-10T14:50:48.536Z,1.42
2023-11-10T14:53:33.939Z,1.38
2023-11-10T14:56:01.235Z,1.27
2023-11-10T14:58:28.036Z,1.30
2023-11-10T15:00:54.936Z,1.17
2023-11-10T15:03:23.529Z,2.03
2023-11-10T15:05:51.018Z,1.50
2023-11-10T15:08:20.024Z,0.82
2023-11-10T15:10:47.955Z,0.77
2023-11-10T15:13:15.475Z,0.80
2023-11-10T15:15:48.729Z,0.63
2023-11-10T15:18:17.647Z,1.02
2023-11-10T15:20:44.610Z,0.90
2023-11-10T15:23:12.675Z,0.80
2023-11-10T15:25:40.401Z,0.85
2023-11-10T15:28:08.414Z,1.48
2023-11-10T15:30:37.654Z,1.20
2023-11-10T15:33:08.952Z,0.95
2023-11-10T15:35:44.210Z,0.82
2023-11-10T15:38:11.010Z,1.48
2023-11-10T15:40:39.047Z,1.15
2023-11-10T15:43:06.469Z,1.20
2023-11-10T15:45:34.987Z,1.60
2023-11-10T15:48:02.920Z,1.20
2023-11-10T15:50:29.766Z,4.38
2023-11-10T15:52:56.562Z,3.08
2023-11-10T15:55:23.518Z,1.40
2023-11-10T15:57:50.384Z,1.40
2023-11-10T16:00:21.643Z,1.98
2023-11-10T16:02:49.544Z,0.70
2023-11-10T16:05:17.164Z,1.20
2023-11-10T16:07:44.103Z,0.80
2023-11-10T16:10:13.969Z,0.95
2023-11-10T16:12:40.997Z,0.80
2023-11-10T16:15:09.082Z,1.65
2023-11-10T16:17:36.275Z,0.95
2023-11-10T16:20:06.980Z,1.00
2023-11-10T16:22:34.048Z,0.98
2023-11-10T16:25:01.015Z,0.88
2023-11-10T16:27:29.596Z,0.80
2023-11-10T16:29:58.083Z,0.90
2023-11-10T16:32:31.261Z,0.95
2023-11-10T16:35:00.188Z,0.90
2023-11-10T16:37:27.661Z,1.00
2023-11-10T16:39:54.889Z,0.80
2023-11-10T16:42:21.787Z,1.00
2023-11-10T16:44:49.258Z,0.82
2023-11-10T16:47:20.573Z,1.02
2023-11-10T16:49:49.388Z,1.20
2023-11-10T16:52:16.891Z,0.90
2023-11-10T16:54:44.455Z,1.00
2023-11-10T16:57:11.419Z,3.28
2023-11-10T16:59:38.827Z,1.60
2023-11-10T17:02:05.776Z,1.38
2023-11-10T17:04:33.120Z,1.00
2023-11-10T17:07:00.091Z,1.00
2023-11-10T17:09:27.395Z,0.80
2023-11-10T17:11:54.427Z,1.00
2023-11-10T17:14:21.512Z,1.00
2023-11-10T17:16:48.511Z,1.10
2023-11-10T17:19:15.435Z,1.38
2023-11-10T17:21:42.342Z,1.35
2023-11-10T17:24:10.046Z,1.40
2023-11-10T17:26:38.091Z,1.30
2023-11-10T17:29:05.850Z,1.58
2023-11-10T17:31:32.949Z,1.48
2023-11-10T17:33:59.868Z,1.20
2023-11-10T17:36:26.821Z,1.50
2023-11-10T17:38:53.709Z,1.58
2023-11-10T17:41:20.553Z,1.67
2023-11-10T17:43:47.417Z,1.70
2023-11-10T17:46:15.112Z,1.55
2023-11-10T17:48:41.998Z,1.40
2023-11-10T17:51:09.762Z,1.40
2023-11-10T17:53:36.989Z,1.17
2023-11-10T17:56:04.614Z,1.55
2023-11-10T17:58:32.322Z,1.85
2023-11-10T18:00:59.409Z,1.63
2023-11-10T18:03:26.307Z,1.63
2023-11-10T18:05:53.315Z,1.38
2023-11-10T18:08:20.737Z,1.52
2023-11-10T18:10:48.751Z,1.65
2023-11-10T18:13:15.968Z,1.80
2023-11-10T18:15:43.050Z,1.75
2023-11-10T18:18:09.963Z,1.80
2023-11-10T18:20:37.198Z,1.80
2023-11-10T18:23:04.208Z,1.80
2023-11-10T18:25:31.893Z,2.15
2023-11-10T18:28:01.219Z,2.47
2023-11-10T18:30:28.231Z,2.10
2023-11-10T18:32:58.745Z,2.20
2023-11-10T18:35:25.684Z,2.30
2023-11-10T18:37:52.499Z,2.10
2023-11-10T18:40:19.451Z,2.28
2023-11-10T18:42:48.693Z,2.30
2023-11-10T18:45:15.937Z,2.70
2023-11-10T18:47:43.049Z,2.40
2023-11-10T18:50:10.778Z,2.33
2023-11-10T18:52:37.732Z,2.65
2023-11-10T18:55:04.996Z,2.28
2023-11-10T18:57:32.142Z,2.20
2023-11-10T18:59:59.308Z,2.10
2023-11-10T19:02:26.738Z,2.22
2023-11-10T19:04:53.648Z,1.80
2023-11-10T19:07:21.878Z,2.42
2023-11-10T19:09:48.988Z,2.25
2023-11-10T19:12:16.198Z,2.45
2023-11-10T19:14:46.771Z,2.72
2023-11-10T19:17:15.040Z,2.42
2023-11-10T19:19:43.894Z,2.45
2023-11-10T19:22:11.790Z,2.20
2023-11-10T19:24:39.237Z,2.08
2023-11-10T19:27:06.905Z,1.80
2023-11-10T19:29:34.247Z,1.92
2023-11-10T19:32:01.461Z,2.17
2023-11-10T19:34:28.459Z,2.10
2023-11-10T19:36:58.463Z,2.20
2023-11-10T19:41:55.699Z,1.77
2023-11-10T19:44:23.416Z,2.22
2023-11-10T19:46:51.569Z,2.05
2023-11-10T19:49:19.072Z,3.80
2023-11-10T20:04:14.521Z,2.53
2023-11-10T20:06:42.268Z,2.40
2023-11-10T20:09:09.830Z,2.40
2023-11-10T20:11:36.776Z,2.13
2023-11-10T20:14:03.822Z,2.55
2023-11-10T20:16:34.757Z,2.50
2023-11-10T20:19:01.590Z,2.38
2023-11-10T20:21:28.747Z,2.20
2023-11-10T20:23:55.782Z,2.08
2023-11-10T20:26:22.725Z,1.80
2023-11-10T20:28:49.513Z,1.90
2023-11-10T20:31:16.430Z,2.85
2023-11-10T20:33:43.361Z,2.80
2023-11-10T20:36:10.408Z,2.40
2023-11-10T20:38:37.495Z,2.50
2023-11-10T20:41:07.554Z,2.50
2023-11-10T20:43:36.361Z,2.42
2023-11-10T20:46:03.767Z,2.03
2023-11-10T20:48:32.454Z,2.63
2023-11-10T20:51:00.752Z,2.20
2023-11-10T20:53:29.196Z,1.80
2023-11-10T20:55:56.078Z,2.00
2023-11-10T20:58:23.070Z,1.90
2023-11-10T21:00:49.920Z,2.40
2023-11-10T21:03:17.275Z,2.47
2023-11-10T21:05:48.076Z,1.95
2023-11-10T21:08:15.550Z,2.20
2023-11-10T21:10:43.502Z,2.03
2023-11-10T21:13:11.409Z,2.70
2023-11-10T21:15:38.615Z,2.35
2023-11-10T21:18:08.534Z,2.20
2023-11-10T21:20:36.146Z,2.63
2023-11-10T21:23:07.499Z,2.25
2023-11-10T21:25:34.721Z,2.50
2023-11-10T21:28:01.669Z,2.63
2023-11-10T21:30:28.558Z,2.35
2023-11-10T21:32:55.463Z,2.15
2023-11-10T21:35:27.209Z,2.22
2023-11-10T21:37:57.420Z,2.10
2023-11-10T21:40:24.363Z,1.98
2023-11-10T21:42:51.153Z,1.80
2023-11-10T21:45:19.023Z,1.80
2023-11-10T21:47:46.040Z,1.60
2023-11-10T21:50:13.358Z,1.77
2023-11-10T21:52:41.518Z,1.77
2023-11-10T21:55:08.718Z,8.10
2023-11-10T21:57:35.860Z,5.22
2023-11-10T22:00:03.450Z,6.75
2023-11-10T22:02:30.621Z,4.50
2023-11-10T22:04:59.631Z,3.35
2023-11-10T22:07:26.469Z,2.83
2023-11-10T22:09:53.238Z,2.95
2023-11-10T22:12:21.040Z,3.08
2023-11-10T22:14:48.914Z,2.60
2023-11-10T22:17:15.725Z,2.40
2023-11-10T22:19:43.131Z,2.33
2023-11-10T22:22:09.988Z,2.08
2023-11-10T22:24:37.709Z,2.30
2023-11-10T22:27:05.386Z,2.55
2023-11-10T22:29:32.370Z,2.50
2023-11-10T22:32:00.370Z,2.20
2023-11-10T22:34:27.811Z,2.22
2023-11-10T22:36:54.684Z,2.00
2023-11-10T22:39:21.626Z,1.80
2023-11-10T22:41:48.419Z,2.20
2023-11-10T22:44:15.259Z,1.83
2023-11-10T22:46:42.744Z,1.90
2023-11-10T22:49:09.787Z,2.10
2023-11-10T22:51:36.672Z,2.00
2023-11-10T22:54:03.984Z,2.20
2023-11-10T22:56:30.802Z,2.13
2023-11-10T22:58:57.607Z,2.00
2023-11-10T23:01:25.204Z,2.05
2023-11-10T23:03:53.453Z,2.60
2023-11-10T23:06:20.829Z,2.30
2023-11-10T23:08:47.641Z,2.88
2023-11-10T23:11:17.457Z,3.38
2023-11-10T23:13:48.004Z,3.08
2023-11-10T23:16:15.662Z,2.92
2023-11-10T23:18:43.662Z,2.47
2023-11-10T23:21:10.879Z,2.58
2023-11-10T23:23:38.520Z,3.10
2023-11-10T23:26:06.864Z,3.35
2023-11-10T23:28:34.122Z,2.55
2023-11-10T23:31:01.153Z,2.83
2023-11-10T23:33:28.065Z,3.00
2023-11-10T23:36:01.128Z,3.08
2023-11-10T23:38:29.610Z,2.88
2023-11-10T23:40:57.872Z,2.75
2023-11-10T23:43:25.149Z,2.70
2023-11-10T23:45:52.322Z,2.53
2023-11-10T23:48:19.521Z,2.30
2023-11-10T23:50:47.725Z,2.60
2023-11-10T23:53:17.510Z,2.60
2023-11-10T23:55:45.100Z,2.30
2023-11-10T23:58:12.069Z,2.50
